sensor_id;sensor_type;location;lat;lon;timestamp;P1;durP1;ratioP1;P2;durP2;ratioP2
69985;SDS011;57328;52.054;5.294;2023-05-10T00:01:11;62.97;;;21.88;;
69985;SDS011;57328;52.054;5.294;2023-05-10T00:03:39;62.13;;;21.02;;
69985;SDS011;57328;52.054;5.294;2023-05-10T00:06:06;55.25;;;20.88;;
69985;SDS011;57328;52.054;5.294;2023-05-10T00:08:34;62.58;;;22.25;;
69985;SDS011;57328;52.054;5.294;2023-05-10T00:11:01;61.30;;;21.05;;
69985;SDS011;57328;52.054;5.294;2023-05-10T00:13:28;56.65;;;21.05;;
69985;SDS011;57328;52.054;5.294;2023-05-10T00:15:55;67.30;;;22.88;;
69985;SDS011;57328;52.054;5.294;2023-05-10T00:18:23;65.53;;;21.88;;
69985;SDS011;57328;52.054;5.294;2023-05-10T00:20:50;71.57;;;22.63;;
69985;SDS011;57328;52.054;5.294;2023-05-10T00:23:17;66.95;;;21.70;;
69985;SDS011;57328;52.054;5.294;2023-05-10T00:25:44;71.07;;;22.83;;
69985;SDS011;57328;52.054;5.294;2023-05-10T00:28:12;70.80;;;22.05;;
69985;SDS011;57328;52.054;5.294;2023-05-10T00:30:39;66.63;;;21.15;;
69985;SDS011;57328;52.054;5.294;2023-05-10T00:33:06;63.83;;;21.45;;
69985;SDS011;57328;52.054;5.294;2023-05-10T00:35:33;60.78;;;20.58;;
69985;SDS011;57328;52.054;5.294;2023-05-10T00:38:01;66.03;;;20.58;;
69985;SDS011;57328;52.054;5.294;2023-05-10T00:40:28;64.43;;;21.08;;
69985;SDS011;57328;52.054;5.294;2023-05-10T00:42:56;61.35;;;19.40;;
69985;SDS011;57328;52.054;5.294;2023-05-10T00:45:24;63.20;;;20.27;;
69985;SDS011;57328;52.054;5.294;2023-05-10T00:47:51;71.80;;;20.73;;
69985;SDS011;57328;52.054;5.294;2023-05-10T00:50:21;65.05;;;21.63;;
69985;SDS011;57328;52.054;5.294;2023-05-10T00:52:49;64.72;;;20.58;;
69985;SDS011;57328;52.054;5.294;2023-05-10T00:55:16;56.47;;;18.52;;
69985;SDS011;57328;52.054;5.294;2023-05-10T00:57:45;57.97;;;19.05;;
69985;SDS011;57328;52.054;5.294;2023-05-10T01:00:12;66.60;;;19.33;;
69985;SDS011;57328;52.054;5.294;2023-05-10T01:02:44;60.90;;;20.10;;
69985;SDS011;57328;52.054;5.294;2023-05-10T01:05:12;71.30;;;19.80;;
69985;SDS011;57328;52.054;5.294;2023-05-10T01:07:40;63.58;;;18.90;;
69985;SDS011;57328;52.054;5.294;2023-05-10T01:10:07;71.22;;;20.17;;
69985;SDS011;57328;52.054;5.294;2023-05-10T01:12:35;66.80;;;19.08;;
69985;SDS011;57328;52.054;5.294;2023-05-10T01:15:05;61.05;;;20.42;;
69985;SDS011;57328;52.054;5.294;2023-05-10T01:17:32;66.32;;;20.63;;
69985;SDS011;57328;52.054;5.294;2023-05-10T01:20:00;61.75;;;19.42;;
69985;SDS011;57328;52.054;5.294;2023-05-10T01:27:45;63.10;;;19.83;;
69985;SDS011;57328;52.054;5.294;2023-05-10T01:32:43;71.25;;;20.55;;
69985;SDS011;57328;52.054;5.294;2023-05-10T01:35:17;64.18;;;19.88;;
69985;SDS011;57328;52.054;5.294;2023-05-10T01:37:57;69.75;;;20.88;;
69985;SDS011;57328;52.054;5.294;2023-05-10T01:40:29;68.25;;;21.23;;
69985;SDS011;57328;52.054;5.294;2023-05-10T01:43:05;74.35;;;19.88;;
69985;SDS011;57328;52.054;5.294;2023-05-10T01:45:47;72.53;;;21.52;;
69985;SDS011;57328;52.054;5.294;2023-05-10T01:48:17;78.82;;;21.73;;
69985;SDS011;57328;52.054;5.294;2023-05-10T01:50:45;64.85;;;19.77;;
69985;SDS011;57328;52.054;5.294;2023-05-10T01:53:13;71.32;;;20.95;;
69985;SDS011;57328;52.054;5.294;2023-05-10T01:55:46;68.20;;;20.63;;
69985;SDS011;57328;52.054;5.294;2023-05-10T01:58:15;85.90;;;22.33;;
69985;SDS011;57328;52.054;5.294;2023-05-10T02:00:44;71.80;;;21.52;;
69985;SDS011;57328;52.054;5.294;2023-05-10T02:06:42;72.07;;;21.25;;
69985;SDS011;57328;52.054;5.294;2023-05-10T02:09:10;69.25;;;21.77;;
69985;SDS011;57328;52.054;5.294;2023-05-10T02:11:37;76.50;;;22.85;;
69985;SDS011;57328;52.054;5.294;2023-05-10T02:14:06;86.45;;;22.38;;
69985;SDS011;57328;52.054;5.294;2023-05-10T02:16:34;80.38;;;23.65;;
69985;SDS011;57328;52.054;5.294;2023-05-10T02:19:02;86.28;;;24.52;;
69985;SDS011;57328;52.054;5.294;2023-05-10T02:21:30;91.32;;;25.05;;
69985;SDS011;57328;52.054;5.294;2023-05-10T02:26:27;86.90;;;24.40;;
69985;SDS011;57328;52.054;5.294;2023-05-10T02:28:54;90.90;;;24.65;;
69985;SDS011;57328;52.054;5.294;2023-05-10T02:31:23;95.03;;;26.33;;
69985;SDS011;57328;52.054;5.294;2023-05-10T02:33:50;103.40;;;26.58;;
69985;SDS011;57328;52.054;5.294;2023-05-10T02:36:18;105.82;;;26.83;;
69985;SDS011;57328;52.054;5.294;2023-05-10T02:38:47;107.35;;;26.90;;
69985;SDS011;57328;52.054;5.294;2023-05-10T02:41:15;115.93;;;28.17;;
69985;SDS011;57328;52.054;5.294;2023-05-10T02:43:43;112.88;;;25.95;;
69985;SDS011;57328;52.054;5.294;2023-05-10T02:46:11;103.43;;;27.10;;
69985;SDS011;57328;52.054;5.294;2023-05-10T02:48:38;117.68;;;27.70;;
69985;SDS011;57328;52.054;5.294;2023-05-10T02:51:06;114.03;;;27.08;;
69985;SDS011;57328;52.054;5.294;2023-05-10T02:53:34;112.90;;;27.83;;
69985;SDS011;57328;52.054;5.294;2023-05-10T02:58:29;110.63;;;25.88;;
69985;SDS011;57328;52.054;5.294;2023-05-10T03:00:57;107.85;;;28.38;;
69985;SDS011;57328;52.054;5.294;2023-05-10T03:03:24;107.53;;;26.33;;
69985;SDS011;57328;52.054;5.294;2023-05-10T03:05:52;98.65;;;25.15;;
69985;SDS011;57328;52.054;5.294;2023-05-10T03:08:22;99.25;;;26.88;;
69985;SDS011;57328;52.054;5.294;2023-05-10T03:10:54;93.38;;;25.90;;
69985;SDS011;57328;52.054;5.294;2023-05-10T03:16:08;83.40;;;24.75;;
69985;SDS011;57328;52.054;5.294;2023-05-10T03:18:41;89.97;;;25.40;;
69985;SDS011;57328;52.054;5.294;2023-05-10T03:21:10;74.55;;;23.98;;
69985;SDS011;57328;52.054;5.294;2023-05-10T03:26:06;76.10;;;24.75;;
69985;SDS011;57328;52.054;5.294;2023-05-10T03:28:34;77.13;;;23.55;;
69985;SDS011;57328;52.054;5.294;2023-05-10T03:31:02;75.72;;;23.25;;
69985;SDS011;57328;52.054;5.294;2023-05-10T03:33:31;70.63;;;22.55;;
69985;SDS011;57328;52.054;5.294;2023-05-10T03:35:59;76.20;;;22.42;;
69985;SDS011;57328;52.054;5.294;2023-05-10T03:38:26;75.72;;;21.38;;
69985;SDS011;57328;52.054;5.294;2023-05-10T03:40:55;66.78;;;20.60;;
69985;SDS011;57328;52.054;5.294;2023-05-10T03:43:23;79.28;;;22.05;;
69985;SDS011;57328;52.054;5.294;2023-05-10T03:45:50;78.72;;;22.38;;
69985;SDS011;57328;52.054;5.294;2023-05-10T03:48:17;77.32;;;22.20;;
69985;SDS011;57328;52.054;5.294;2023-05-10T03:50:44;72.85;;;21.33;;
69985;SDS011;57328;52.054;5.294;2023-05-10T03:53:11;66.55;;;21.42;;
69985;SDS011;57328;52.054;5.294;2023-05-10T03:55:39;77.00;;;20.13;;
69985;SDS011;57328;52.054;5.294;2023-05-10T03:58:06;74.10;;;22.02;;
69985;SDS011;57328;52.054;5.294;2023-05-10T04:00:33;81.28;;;22.08;;
69985;SDS011;57328;52.054;5.294;2023-05-10T04:03:01;82.50;;;23.15;;
69985;SDS011;57328;52.054;5.294;2023-05-10T04:05:28;73.97;;;22.13;;
69985;SDS011;57328;52.054;5.294;2023-05-10T04:07:56;77.90;;;22.38;;
69985;SDS011;57328;52.054;5.294;2023-05-10T04:10:23;83.55;;;22.58;;
69985;SDS011;57328;52.054;5.294;2023-05-10T04:12:50;81.75;;;24.08;;
69985;SDS011;57328;52.054;5.294;2023-05-10T04:15:18;91.88;;;23.25;;
69985;SDS011;57328;52.054;5.294;2023-05-10T04:17:45;78.95;;;24.63;;
69985;SDS011;57328;52.054;5.294;2023-05-10T04:20:12;78.57;;;21.75;;
69985;SDS011;57328;52.054;5.294;2023-05-10T04:22:40;89.00;;;22.90;;
69985;SDS011;57328;52.054;5.294;2023-05-10T04:25:08;87.03;;;22.33;;
69985;SDS011;57328;52.054;5.294;2023-05-10T04:27:35;98.95;;;23.70;;
69985;SDS011;57328;52.054;5.294;2023-05-10T04:30:02;103.55;;;26.05;;
69985;SDS011;57328;52.054;5.294;2023-05-10T04:32:29;97.45;;;24.00;;
69985;SDS011;57328;52.054;5.294;2023-05-10T04:34:57;103.82;;;23.80;;
69985;SDS011;57328;52.054;5.294;2023-05-10T04:37:25;97.00;;;24.35;;
69985;SDS011;57328;52.054;5.294;2023-05-10T04:39:52;102.57;;;26.63;;
69985;SDS011;57328;52.054;5.294;2023-05-10T04:42:19;95.82;;;26.15;;
69985;SDS011;57328;52.054;5.294;2023-05-10T04:44:46;91.07;;;25.10;;
69985;SDS011;57328;52.054;5.294;2023-05-10T04:47:13;90.47;;;25.33;;
69985;SDS011;57328;52.054;5.294;2023-05-10T04:49:42;109.85;;;27.60;;
69985;SDS011;57328;52.054;5.294;2023-05-10T04:52:09;114.22;;;29.33;;
69985;SDS011;57328;52.054;5.294;2023-05-10T04:54:37;103.45;;;27.00;;
69985;SDS011;57328;52.054;5.294;2023-05-10T04:57:04;102.25;;;26.58;;
69985;SDS011;57328;52.054;5.294;2023-05-10T04:59:31;94.22;;;25.60;;
69985;SDS011;57328;52.054;5.294;2023-05-10T05:01:58;100.75;;;28.15;;
69985;SDS011;57328;52.054;5.294;2023-05-10T05:04:26;108.10;;;27.05;;
69985;SDS011;57328;52.054;5.294;2023-05-10T05:06:53;92.55;;;26.75;;
69985;SDS011;57328;52.054;5.294;2023-05-10T05:09:21;94.43;;;27.42;;
69985;SDS011;57328;52.054;5.294;2023-05-10T05:11:48;89.95;;;27.75;;
69985;SDS011;57328;52.054;5.294;2023-05-10T05:14:15;99.97;;;28.23;;
69985;SDS011;57328;52.054;5.294;2023-05-10T05:16:42;96.75;;;26.88;;
69985;SDS011;57328;52.054;5.294;2023-05-10T05:19:11;105.90;;;27.58;;
69985;SDS011;57328;52.054;5.294;2023-05-10T05:21:38;92.28;;;27.27;;
69985;SDS011;57328;52.054;5.294;2023-05-10T05:24:06;99.90;;;27.52;;
69985;SDS011;57328;52.054;5.294;2023-05-10T05:26:33;98.05;;;27.30;;
69985;SDS011;57328;52.054;5.294;2023-05-10T05:29:01;93.68;;;27.95;;
69985;SDS011;57328;52.054;5.294;2023-05-10T05:31:28;92.47;;;27.77;;
69985;SDS011;57328;52.054;5.294;2023-05-10T05:33:55;87.65;;;25.13;;
69985;SDS011;57328;52.054;5.294;2023-05-10T05:36:23;88.22;;;25.30;;
69985;SDS011;57328;52.054;5.294;2023-05-10T05:38:50;84.53;;;26.75;;
69985;SDS011;57328;52.054;5.294;2023-05-10T05:41:17;76.60;;;24.05;;
69985;SDS011;57328;52.054;5.294;2023-05-10T05:43:44;81.13;;;25.90;;
69985;SDS011;57328;52.054;5.294;2023-05-10T05:46:12;66.75;;;23.75;;
69985;SDS011;57328;52.054;5.294;2023-05-10T05:48:39;71.72;;;25.00;;
69985;SDS011;57328;52.054;5.294;2023-05-10T05:51:06;79.78;;;25.65;;
69985;SDS011;57328;52.054;5.294;2023-05-10T05:53:33;64.07;;;23.13;;
69985;SDS011;57328;52.054;5.294;2023-05-10T05:56:01;60.15;;;21.65;;
69985;SDS011;57328;52.054;5.294;2023-05-10T05:58:28;74.72;;;22.73;;
69985;SDS011;57328;52.054;5.294;2023-05-10T06:00:55;66.97;;;23.20;;
69985;SDS011;57328;52.054;5.294;2023-05-10T06:03:23;63.00;;;22.50;;
69985;SDS011;57328;52.054;5.294;2023-05-10T06:05:50;56.50;;;22.38;;
69985;SDS011;57328;52.054;5.294;2023-05-10T06:08:18;54.88;;;20.23;;
69985;SDS011;57328;52.054;5.294;2023-05-10T06:10:45;65.57;;;22.65;;
69985;SDS011;57328;52.054;5.294;2023-05-10T06:13:12;60.30;;;21.55;;
69985;SDS011;57328;52.054;5.294;2023-05-10T06:15:40;66.45;;;22.00;;
69985;SDS011;57328;52.054;5.294;2023-05-10T06:18:07;55.28;;;19.90;;
69985;SDS011;57328;52.054;5.294;2023-05-10T06:20:34;67.25;;;23.08;;
69985;SDS011;57328;52.054;5.294;2023-05-10T06:23:01;72.90;;;24.67;;
69985;SDS011;57328;52.054;5.294;2023-05-10T06:25:28;58.90;;;20.70;;
69985;SDS011;57328;52.054;5.294;2023-05-10T06:27:56;55.33;;;20.42;;
69985;SDS011;57328;52.054;5.294;2023-05-10T06:30:24;56.10;;;20.83;;
69985;SDS011;57328;52.054;5.294;2023-05-10T06:32:55;67.75;;;21.50;;
69985;SDS011;57328;52.054;5.294;2023-05-10T06:35:23;60.17;;;20.88;;
69985;SDS011;57328;52.054;5.294;2023-05-10T06:37:50;54.72;;;18.80;;
69985;SDS011;57328;52.054;5.294;2023-05-10T06:40:17;49.67;;;19.08;;
69985;SDS011;57328;52.054;5.294;2023-05-10T06:42:45;47.75;;;18.02;;
69985;SDS011;57328;52.054;5.294;2023-05-10T06:45:13;45.85;;;18.55;;
69985;SDS011;57328;52.054;5.294;2023-05-10T06:47:41;45.28;;;18.02;;
69985;SDS011;57328;52.054;5.294;2023-05-10T06:50:09;36.85;;;14.60;;
69985;SDS011;57328;52.054;5.294;2023-05-10T06:52:37;40.35;;;15.48;;
69985;SDS011;57328;52.054;5.294;2023-05-10T06:55:05;29.63;;;11.13;;
69985;SDS011;57328;52.054;5.294;2023-05-10T06:57:32;28.23;;;11.88;;
69985;SDS011;57328;52.054;5.294;2023-05-10T07:00:00;22.42;;;9.63;;
69985;SDS011;57328;52.054;5.294;2023-05-10T07:02:27;22.10;;;9.13;;
69985;SDS011;57328;52.054;5.294;2023-05-10T07:04:56;20.20;;;8.98;;
69985;SDS011;57328;52.054;5.294;2023-05-10T07:07:28;18.55;;;8.18;;
69985;SDS011;57328;52.054;5.294;2023-05-10T07:09:55;21.88;;;9.07;;
69985;SDS011;57328;52.054;5.294;2023-05-10T07:12:24;17.58;;;7.60;;
69985;SDS011;57328;52.054;5.294;2023-05-10T07:14:51;16.75;;;7.32;;
69985;SDS011;57328;52.054;5.294;2023-05-10T07:17:19;19.25;;;8.02;;
69985;SDS011;57328;52.054;5.294;2023-05-10T07:19:46;19.63;;;8.25;;
69985;SDS011;57328;52.054;5.294;2023-05-10T07:22:14;19.05;;;7.90;;
69985;SDS011;57328;52.054;5.294;2023-05-10T07:24:41;17.77;;;8.15;;
69985;SDS011;57328;52.054;5.294;2023-05-10T07:27:08;16.60;;;8.25;;
69985;SDS011;57328;52.054;5.294;2023-05-10T07:29:36;15.88;;;7.53;;
69985;SDS011;57328;52.054;5.294;2023-05-10T07:32:03;15.35;;;6.85;;
69985;SDS011;57328;52.054;5.294;2023-05-10T07:34:31;15.40;;;6.43;;
69985;SDS011;57328;52.054;5.294;2023-05-10T07:36:58;13.60;;;6.10;;
69985;SDS011;57328;52.054;5.294;2023-05-10T07:39:26;12.18;;;5.93;;
69985;SDS011;57328;52.054;5.294;2023-05-10T07:41:54;13.32;;;5.47;;
69985;SDS011;57328;52.054;5.294;2023-05-10T07:44:21;14.07;;;4.68;;
69985;SDS011;57328;52.054;5.294;2023-05-10T07:46:48;13.75;;;5.80;;
69985;SDS011;57328;52.054;5.294;2023-05-10T07:49:16;11.73;;;5.80;;
69985;SDS011;57328;52.054;5.294;2023-05-10T07:51:43;15.85;;;7.22;;
69985;SDS011;57328;52.054;5.294;2023-05-10T07:54:10;14.77;;;6.90;;
69985;SDS011;57328;52.054;5.294;2023-05-10T07:56:38;13.82;;;6.22;;
69985;SDS011;57328;52.054;5.294;2023-05-10T07:59:14;14.70;;;6.15;;
69985;SDS011;57328;52.054;5.294;2023-05-10T08:01:41;12.10;;;5.28;;
69985;SDS011;57328;52.054;5.294;2023-05-10T08:04:08;15.88;;;6.20;;
69985;SDS011;57328;52.054;5.294;2023-05-10T08:06:36;14.13;;;5.93;;
69985;SDS011;57328;52.054;5.294;2023-05-10T08:09:03;15.65;;;6.28;;
69985;SDS011;57328;52.054;5.294;2023-05-10T08:11:31;15.77;;;6.47;;
69985;SDS011;57328;52.054;5.294;2023-05-10T08:14:00;15.80;;;6.40;;
69985;SDS011;57328;52.054;5.294;2023-05-10T08:16:27;14.15;;;7.13;;
69985;SDS011;57328;52.054;5.294;2023-05-10T08:18:55;15.00;;;6.00;;
69985;SDS011;57328;52.054;5.294;2023-05-10T08:21:22;15.77;;;6.43;;
69985;SDS011;57328;52.054;5.294;2023-05-10T08:23:49;14.65;;;6.45;;
69985;SDS011;57328;52.054;5.294;2023-05-10T08:26:17;16.65;;;6.80;;
69985;SDS011;57328;52.054;5.294;2023-05-10T08:28:44;17.25;;;7.35;;
69985;SDS011;57328;52.054;5.294;2023-05-10T08:31:11;16.25;;;6.82;;
69985;SDS011;57328;52.054;5.294;2023-05-10T08:33:39;15.80;;;6.68;;
69985;SDS011;57328;52.054;5.294;2023-05-10T08:36:09;13.70;;;6.60;;
69985;SDS011;57328;52.054;5.294;2023-05-10T08:38:37;16.90;;;6.82;;
69985;SDS011;57328;52.054;5.294;2023-05-10T08:41:04;19.58;;;7.05;;
69985;SDS011;57328;52.054;5.294;2023-05-10T08:43:32;16.48;;;7.30;;
69985;SDS011;57328;52.054;5.294;2023-05-10T08:46:00;15.73;;;6.57;;
69985;SDS011;57328;52.054;5.294;2023-05-10T08:48:31;13.68;;;6.65;;
69985;SDS011;57328;52.054;5.294;2023-05-10T08:51:00;16.23;;;6.45;;
69985;SDS011;57328;52.054;5.294;2023-05-10T08:53:28;15.20;;;6.72;;
69985;SDS011;57328;52.054;5.294;2023-05-10T08:55:56;13.68;;;6.20;;
69985;SDS011;57328;52.054;5.294;2023-05-10T08:58:23;16.85;;;6.82;;
69985;SDS011;57328;52.054;5.294;2023-05-10T09:03:38;15.70;;;6.85;;
69985;SDS011;57328;52.054;5.294;2023-05-10T09:06:06;14.07;;;6.85;;
69985;SDS011;57328;52.054;5.294;2023-05-10T09:08:33;13.27;;;6.82;;
69985;SDS011;57328;52.054;5.294;2023-05-10T09:11:00;14.90;;;6.03;;
69985;SDS011;57328;52.054;5.294;2023-05-10T09:16:15;13.05;;;6.28;;
69985;SDS011;57328;52.054;5.294;2023-05-10T09:18:47;15.82;;;6.55;;
69985;SDS011;57328;52.054;5.294;2023-05-10T09:21:16;12.45;;;5.65;;
69985;SDS011;57328;52.054;5.294;2023-05-10T09:23:44;12.32;;;5.97;;
69985;SDS011;57328;52.054;5.294;2023-05-10T09:26:13;14.35;;;6.40;;
69985;SDS011;57328;52.054;5.294;2023-05-10T09:28:51;14.77;;;6.80;;
69985;SDS011;57328;52.054;5.294;2023-05-10T09:31:18;14.90;;;6.15;;
69985;SDS011;57328;52.054;5.294;2023-05-10T09:33:47;14.85;;;6.40;;
69985;SDS011;57328;52.054;5.294;2023-05-10T09:38:48;13.25;;;6.32;;
69985;SDS011;57328;52.054;5.294;2023-05-10T09:43:45;16.55;;;6.50;;
69985;SDS011;57328;52.054;5.294;2023-05-10T09:46:15;12.93;;;6.15;;
69985;SDS011;57328;52.054;5.294;2023-05-10T09:48:44;14.40;;;6.40;;
69985;SDS011;57328;52.054;5.294;2023-05-10T09:51:24;12.98;;;6.35;;
69985;SDS011;57328;52.054;5.294;2023-05-10T09:54:12;15.48;;;6.53;;
69985;SDS011;57328;52.054;5.294;2023-05-10T09:56:39;15.00;;;6.57;;
69985;SDS011;57328;52.054;5.294;2023-05-10T09:59:10;15.25;;;6.68;;
69985;SDS011;57328;52.054;5.294;2023-05-10T10:01:37;14.80;;;6.03;;
69985;SDS011;57328;52.054;5.294;2023-05-10T10:04:05;13.85;;;6.00;;
69985;SDS011;57328;52.054;5.294;2023-05-10T10:06:37;14.07;;;6.57;;
69985;SDS011;57328;52.054;5.294;2023-05-10T10:09:07;15.02;;;6.93;;
69985;SDS011;57328;52.054;5.294;2023-05-10T10:11:36;12.48;;;5.50;;
69985;SDS011;57328;52.054;5.294;2023-05-10T10:14:04;15.18;;;5.75;;
69985;SDS011;57328;52.054;5.294;2023-05-10T10:16:31;12.80;;;5.70;;
69985;SDS011;57328;52.054;5.294;2023-05-10T10:18:59;10.95;;;5.50;;
69985;SDS011;57328;52.054;5.294;2023-05-10T10:21:26;12.13;;;5.13;;
69985;SDS011;57328;52.054;5.294;2023-05-10T10:23:54;12.13;;;4.97;;
69985;SDS011;57328;52.054;5.294;2023-05-10T10:26:21;9.70;;;5.15;;
69985;SDS011;57328;52.054;5.294;2023-05-10T10:28:56;12.63;;;5.53;;
69985;SDS011;57328;52.054;5.294;2023-05-10T10:31:40;11.05;;;5.35;;
69985;SDS011;57328;52.054;5.294;2023-05-10T10:34:09;12.75;;;5.50;;
69985;SDS011;57328;52.054;5.294;2023-05-10T10:36:45;8.73;;;4.20;;
69985;SDS011;57328;52.054;5.294;2023-05-10T10:39:13;10.60;;;4.30;;
69985;SDS011;57328;52.054;5.294;2023-05-10T10:41:54;8.98;;;4.13;;
69985;SDS011;57328;52.054;5.294;2023-05-10T10:46:58;11.00;;;4.47;;
69985;SDS011;57328;52.054;5.294;2023-05-10T10:49:26;9.07;;;4.68;;
69985;SDS011;57328;52.054;5.294;2023-05-10T10:54:39;8.43;;;3.80;;
69985;SDS011;57328;52.054;5.294;2023-05-10T10:59:35;15.48;;;4.40;;
69985;SDS011;57328;52.054;5.294;2023-05-10T11:02:02;11.57;;;4.30;;
69985;SDS011;57328;52.054;5.294;2023-05-10T11:04:31;8.82;;;3.97;;
69985;SDS011;57328;52.054;5.294;2023-05-10T11:07:18;9.70;;;4.65;;
69985;SDS011;57328;52.054;5.294;2023-05-10T11:09:49;7.50;;;3.88;;
69985;SDS011;57328;52.054;5.294;2023-05-10T11:12:16;10.13;;;4.18;;
69985;SDS011;57328;52.054;5.294;2023-05-10T11:14:43;8.93;;;4.30;;
69985;SDS011;57328;52.054;5.294;2023-05-10T11:17:23;6.78;;;3.28;;
69985;SDS011;57328;52.054;5.294;2023-05-10T11:20:09;8.85;;;3.90;;
69985;SDS011;57328;52.054;5.294;2023-05-10T11:22:49;8.95;;;4.00;;
69985;SDS011;57328;52.054;5.294;2023-05-10T11:25:17;9.90;;;4.45;;
69985;SDS011;57328;52.054;5.294;2023-05-10T11:27:45;8.88;;;4.32;;
69985;SDS011;57328;52.054;5.294;2023-05-10T11:30:14;10.52;;;3.72;;
69985;SDS011;57328;52.054;5.294;2023-05-10T11:32:41;9.38;;;3.80;;
69985;SDS011;57328;52.054;5.294;2023-05-10T11:35:12;9.88;;;4.32;;
69985;SDS011;57328;52.054;5.294;2023-05-10T11:37:40;8.60;;;3.83;;
69985;SDS011;57328;52.054;5.294;2023-05-10T11:40:10;8.10;;;4.03;;
69985;SDS011;57328;52.054;5.294;2023-05-10T11:42:37;8.63;;;3.85;;
69985;SDS011;57328;52.054;5.294;2023-05-10T11:45:05;9.60;;;3.88;;
69985;SDS011;57328;52.054;5.294;2023-05-10T11:47:32;8.38;;;3.63;;
69985;SDS011;57328;52.054;5.294;2023-05-10T11:50:01;9.43;;;4.00;;
69985;SDS011;57328;52.054;5.294;2023-05-10T11:52:35;8.35;;;3.55;;
69985;SDS011;57328;52.054;5.294;2023-05-10T11:55:03;7.53;;;3.10;;
69985;SDS011;57328;52.054;5.294;2023-05-10T11:57:31;4.78;;;2.70;;
69985;SDS011;57328;52.054;5.294;2023-05-10T11:59:58;6.80;;;2.92;;
69985;SDS011;57328;52.054;5.294;2023-05-10T12:02:25;6.40;;;2.80;;
69985;SDS011;57328;52.054;5.294;2023-05-10T12:04:53;8.68;;;3.70;;
69985;SDS011;57328;52.054;5.294;2023-05-10T12:07:22;7.85;;;3.30;;
69985;SDS011;57328;52.054;5.294;2023-05-10T12:10:05;7.20;;;3.13;;
69985;SDS011;57328;52.054;5.294;2023-05-10T12:12:41;9.18;;;3.97;;
69985;SDS011;57328;52.054;5.294;2023-05-10T12:15:12;7.70;;;3.42;;
69985;SDS011;57328;52.054;5.294;2023-05-10T12:17:39;9.13;;;3.60;;
69985;SDS011;57328;52.054;5.294;2023-05-10T12:20:15;7.90;;;3.60;;
69985;SDS011;57328;52.054;5.294;2023-05-10T12:22:44;6.90;;;3.10;;
69985;SDS011;57328;52.054;5.294;2023-05-10T12:25:11;8.65;;;3.70;;
69985;SDS011;57328;52.054;5.294;2023-05-10T12:27:38;8.93;;;3.95;;
69985;SDS011;57328;52.054;5.294;2023-05-10T12:30:05;8.93;;;4.38;;
69985;SDS011;57328;52.054;5.294;2023-05-10T12:32:39;9.50;;;4.95;;
69985;SDS011;57328;52.054;5.294;2023-05-10T12:35:09;9.15;;;5.03;;
69985;SDS011;57328;52.054;5.294;2023-05-10T12:37:36;7.85;;;4.68;;
69985;SDS011;57328;52.054;5.294;2023-05-10T12:40:05;7.93;;;4.63;;
69985;SDS011;57328;52.054;5.294;2023-05-10T12:42:34;8.23;;;5.00;;
69985;SDS011;57328;52.054;5.294;2023-05-10T12:45:05;9.98;;;5.30;;
69985;SDS011;57328;52.054;5.294;2023-05-10T12:47:32;8.65;;;5.55;;
69985;SDS011;57328;52.054;5.294;2023-05-10T12:50:01;9.57;;;5.63;;
69985;SDS011;57328;52.054;5.294;2023-05-10T12:52:28;11.13;;;5.68;;
69985;SDS011;57328;52.054;5.294;2023-05-10T12:54:56;9.35;;;5.57;;
69985;SDS011;57328;52.054;5.294;2023-05-10T12:57:23;11.32;;;6.22;;
69985;SDS011;57328;52.054;5.294;2023-05-10T12:59:50;9.48;;;5.82;;
69985;SDS011;57328;52.054;5.294;2023-05-10T13:02:18;10.00;;;5.03;;
69985;SDS011;57328;52.054;5.294;2023-05-10T13:04:49;13.00;;;5.30;;
69985;SDS011;57328;52.054;5.294;2023-05-10T13:07:17;14.35;;;6.88;;
69985;SDS011;57328;52.054;5.294;2023-05-10T13:09:44;13.55;;;6.07;;
69985;SDS011;57328;52.054;5.294;2023-05-10T13:12:12;11.65;;;5.00;;
69985;SDS011;57328;52.054;5.294;2023-05-10T13:14:39;12.45;;;5.55;;
69985;SDS011;57328;52.054;5.294;2023-05-10T13:17:06;11.75;;;4.75;;
69985;SDS011;57328;52.054;5.294;2023-05-10T13:19:34;12.63;;;5.25;;
69985;SDS011;57328;52.054;5.294;2023-05-10T13:22:01;11.23;;;4.80;;
69985;SDS011;57328;52.054;5.294;2023-05-10T13:24:30;12.52;;;5.25;;
69985;SDS011;57328;52.054;5.294;2023-05-10T13:26:57;12.45;;;5.05;;
69985;SDS011;57328;52.054;5.294;2023-05-10T13:29:25;12.20;;;5.32;;
69985;SDS011;57328;52.054;5.294;2023-05-10T13:31:52;11.95;;;5.35;;
69985;SDS011;57328;52.054;5.294;2023-05-10T13:34:19;14.23;;;6.03;;
69985;SDS011;57328;52.054;5.294;2023-05-10T13:36:47;14.20;;;6.03;;
69985;SDS011;57328;52.054;5.294;2023-05-10T13:39:15;16.10;;;5.88;;
69985;SDS011;57328;52.054;5.294;2023-05-10T13:41:42;14.13;;;5.88;;
69985;SDS011;57328;52.054;5.294;2023-05-10T13:44:11;19.55;;;7.32;;
69985;SDS011;57328;52.054;5.294;2023-05-10T13:46:39;16.63;;;7.45;;
69985;SDS011;57328;52.054;5.294;2023-05-10T13:49:06;18.98;;;7.28;;
69985;SDS011;57328;52.054;5.294;2023-05-10T13:51:33;17.55;;;7.45;;
69985;SDS011;57328;52.054;5.294;2023-05-10T13:54:01;16.95;;;7.40;;
69985;SDS011;57328;52.054;5.294;2023-05-10T13:56:29;18.20;;;7.88;;
69985;SDS011;57328;52.054;5.294;2023-05-10T13:58:56;20.23;;;8.00;;
69985;SDS011;57328;52.054;5.294;2023-05-10T14:01:26;16.63;;;7.65;;
69985;SDS011;57328;52.054;5.294;2023-05-10T14:07:16;19.55;;;8.52;;
69985;SDS011;57328;52.054;5.294;2023-05-10T14:09:44;20.38;;;8.30;;
69985;SDS011;57328;52.054;5.294;2023-05-10T14:12:11;19.20;;;8.60;;
69985;SDS011;57328;52.054;5.294;2023-05-10T14:14:40;18.15;;;8.13;;
69985;SDS011;57328;52.054;5.294;2023-05-10T14:19:53;19.35;;;8.30;;
69985;SDS011;57328;52.054;5.294;2023-05-10T14:22:20;20.23;;;8.45;;
69985;SDS011;57328;52.054;5.294;2023-05-10T14:27:36;17.58;;;8.18;;
69985;SDS011;57328;52.054;5.294;2023-05-10T14:30:04;14.52;;;7.47;;
69985;SDS011;57328;52.054;5.294;2023-05-10T14:32:31;18.70;;;8.07;;
69985;SDS011;57328;52.054;5.294;2023-05-10T14:34:59;17.65;;;7.80;;
69985;SDS011;57328;52.054;5.294;2023-05-10T14:37:26;19.20;;;8.48;;
69985;SDS011;57328;52.054;5.294;2023-05-10T14:39:53;18.15;;;8.27;;
69985;SDS011;57328;52.054;5.294;2023-05-10T14:42:20;18.75;;;8.88;;
69985;SDS011;57328;52.054;5.294;2023-05-10T14:44:48;17.98;;;8.43;;
69985;SDS011;57328;52.054;5.294;2023-05-10T14:47:15;17.55;;;7.10;;
69985;SDS011;57328;52.054;5.294;2023-05-10T14:49:42;13.70;;;6.38;;
69985;SDS011;57328;52.054;5.294;2023-05-10T14:52:09;15.93;;;7.15;;
69985;SDS011;57328;52.054;5.294;2023-05-10T14:54:38;14.93;;;6.45;;
69985;SDS011;57328;52.054;5.294;2023-05-10T14:57:05;14.82;;;6.43;;
69985;SDS011;57328;52.054;5.294;2023-05-10T14:59:33;14.80;;;6.40;;
69985;SDS011;57328;52.054;5.294;2023-05-10T15:02:00;14.45;;;6.57;;
69985;SDS011;57328;52.054;5.294;2023-05-10T15:04:29;17.65;;;7.10;;
69985;SDS011;57328;52.054;5.294;2023-05-10T15:06:57;16.70;;;7.60;;
69985;SDS011;57328;52.054;5.294;2023-05-10T15:09:25;14.05;;;6.05;;
69985;SDS011;57328;52.054;5.294;2023-05-10T15:11:54;16.52;;;5.88;;
69985;SDS011;57328;52.054;5.294;2023-05-10T15:14:22;12.65;;;5.97;;
69985;SDS011;57328;52.054;5.294;2023-05-10T15:16:49;13.85;;;5.88;;
69985;SDS011;57328;52.054;5.294;2023-05-10T15:19:16;16.13;;;6.53;;
69985;SDS011;57328;52.054;5.294;2023-05-10T15:21:44;15.20;;;7.07;;
69985;SDS011;57328;52.054;5.294;2023-05-10T15:24:11;12.50;;;5.97;;